sensor_id;sensor_type;location;lat;lon;timestamp;P1;durP1;ratioP1;P2;durP2;ratioP2
51949;SDS011;37974;53.218;6.640;2024-02-15T00:00:44;777.33;;;713.13;;
51949;SDS011;37974;53.218;6.640;2024-02-15T00:03:10;814.20;;;744.55;;
51949;SDS011;37974;53.218;6.640;2024-02-15T00:05:38;897.13;;;811.75;;
51949;SDS011;37974;53.218;6.640;2024-02-15T00:08:04;741.30;;;680.58;;
51949;SDS011;37974;53.218;6.640;2024-02-15T00:10:31;884.20;;;808.97;;
51949;SDS011;37974;53.218;6.640;2024-02-15T00:12:57;797.58;;;731.50;;
51949;SDS011;37974;53.218;6.640;2024-02-15T00:15:23;804.95;;;737.63;;
51949;SDS011;37974;53.218;6.640;2024-02-15T00:17:50;801.85;;;736.42;;
51949;SDS011;37974;53.218;6.640;2024-02-15T00:20:16;804.45;;;738.97;;
51949;SDS011;37974;53.218;6.640;2024-02-15T00:22:43;780.67;;;717.40;;
51949;SDS011;37974;53.218;6.640;2024-02-15T00:25:09;789.78;;;725.33;;
51949;SDS011;37974;53.218;6.640;2024-02-15T00:27:36;813.17;;;745.50;;
51949;SDS011;37974;53.218;6.640;2024-02-15T00:30:02;839.53;;;768.17;;
51949;SDS011;37974;53.218;6.640;2024-02-15T00:32:33;814.05;;;746.67;;
51949;SDS011;37974;53.218;6.640;2024-02-15T00:34:59;799.95;;;733.30;;
51949;SDS011;37974;53.218;6.640;2024-02-15T00:37:25;802.28;;;735.42;;
51949;SDS011;37974;53.218;6.640;2024-02-15T00:39:50;793.58;;;728.10;;
51949;SDS011;37974;53.218;6.640;2024-02-15T00:42:16;785.03;;;720.25;;
51949;SDS011;37974;53.218;6.640;2024-02-15T00:44:42;837.92;;;768.15;;
51949;SDS011;37974;53.218;6.640;2024-02-15T00:47:09;868.75;;;793.40;;
51949;SDS011;37974;53.218;6.640;2024-02-15T00:49:36;882.28;;;807.22;;
51949;SDS011;37974;53.218;6.640;2024-02-15T00:52:02;863.88;;;790.58;;
51949;SDS011;37974;53.218;6.640;2024-02-15T00:54:28;837.53;;;765.45;;
51949;SDS011;37974;53.218;6.640;2024-02-15T00:56:53;822.92;;;755.03;;
51949;SDS011;37974;53.218;6.640;2024-02-15T00:59:19;813.60;;;746.90;;
51949;SDS011;37974;53.218;6.640;2024-02-15T01:01:45;787.22;;;722.35;;
51949;SDS011;37974;53.218;6.640;2024-02-15T01:04:12;868.47;;;794.67;;
51949;SDS011;37974;53.218;6.640;2024-02-15T01:06:39;854.83;;;781.38;;
51949;SDS011;37974;53.218;6.640;2024-02-15T01:09:04;881.30;;;804.30;;
51949;SDS011;37974;53.218;6.640;2024-02-15T01:11:30;796.97;;;731.22;;
51949;SDS011;37974;53.218;6.640;2024-02-15T01:13:57;793.72;;;727.85;;
51949;SDS011;37974;53.218;6.640;2024-02-15T01:16:23;784.80;;;720.22;;
51949;SDS011;37974;53.218;6.640;2024-02-15T01:18:49;788.53;;;724.45;;
51949;SDS011;37974;53.218;6.640;2024-02-15T01:21:15;864.92;;;790.83;;
51949;SDS011;37974;53.218;6.640;2024-02-15T01:23:42;825.78;;;756.83;;
51949;SDS011;37974;53.218;6.640;2024-02-15T01:26:09;820.10;;;751.63;;
51949;SDS011;37974;53.218;6.640;2024-02-15T01:28:37;834.00;;;763.45;;
51949;SDS011;37974;53.218;6.640;2024-02-15T01:31:03;805.78;;;740.40;;
51949;SDS011;37974;53.218;6.640;2024-02-15T01:33:28;802.92;;;737.30;;
51949;SDS011;37974;53.218;6.640;2024-02-15T01:35:54;755.03;;;694.42;;
51949;SDS011;37974;53.218;6.640;2024-02-15T01:38:21;814.10;;;745.33;;
51949;SDS011;37974;53.218;6.640;2024-02-15T01:40:47;829.95;;;761.80;;
51949;SDS011;37974;53.218;6.640;2024-02-15T01:43:13;772.72;;;710.10;;
51949;SDS011;37974;53.218;6.640;2024-02-15T01:45:39;791.08;;;727.10;;
51949;SDS011;37974;53.218;6.640;2024-02-15T01:48:05;798.45;;;734.30;;
51949;SDS011;37974;53.218;6.640;2024-02-15T01:50:32;828.45;;;759.95;;
51949;SDS011;37974;53.218;6.640;2024-02-15T01:52:59;822.95;;;755.90;;
51949;SDS011;37974;53.218;6.640;2024-02-15T01:55:29;822.60;;;754.40;;
51949;SDS011;37974;53.218;6.640;2024-02-15T01:57:54;838.90;;;769.17;;
51949;SDS011;37974;53.218;6.640;2024-02-15T02:00:20;816.30;;;749.10;;
51949;SDS011;37974;53.218;6.640;2024-02-15T02:02:47;813.05;;;746.05;;
51949;SDS011;37974;53.218;6.640;2024-02-15T02:05:13;836.08;;;767.22;;
51949;SDS011;37974;53.218;6.640;2024-02-15T02:07:39;914.67;;;834.50;;
51949;SDS011;37974;53.218;6.640;2024-02-15T02:10:05;840.03;;;771.47;;
51949;SDS011;37974;53.218;6.640;2024-02-15T02:12:32;847.83;;;777.33;;
51949;SDS011;37974;53.218;6.640;2024-02-15T02:14:58;853.90;;;783.13;;
51949;SDS011;37974;53.218;6.640;2024-02-15T02:17:24;790.00;;;726.97;;
51949;SDS011;37974;53.218;6.640;2024-02-15T02:19:49;886.15;;;810.72;;
51949;SDS011;37974;53.218;6.640;2024-02-15T02:22:15;786.75;;;723.90;;
51949;SDS011;37974;53.218;6.640;2024-02-15T02:27:24;817.53;;;750.90;;
51949;SDS011;37974;53.218;6.640;2024-02-15T02:29:52;797.45;;;733.22;;
51949;SDS011;37974;53.218;6.640;2024-02-15T02:32:18;860.33;;;789.10;;
51949;SDS011;37974;53.218;6.640;2024-02-15T02:34:43;910.60;;;830.47;;
51949;SDS011;37974;53.218;6.640;2024-02-15T02:37:09;826.95;;;759.97;;
51949;SDS011;37974;53.218;6.640;2024-02-15T02:39:35;802.20;;;738.67;;
51949;SDS011;37974;53.218;6.640;2024-02-15T02:42:01;806.63;;;741.63;;
51949;SDS011;37974;53.218;6.640;2024-02-15T02:44:26;838.08;;;769.15;;
51949;SDS011;37974;53.218;6.640;2024-02-15T02:46:52;916.08;;;834.72;;
51949;SDS011;37974;53.218;6.640;2024-02-15T02:49:18;806.05;;;741.53;;
51949;SDS011;37974;53.218;6.640;2024-02-15T02:51:43;888.67;;;812.42;;
51949;SDS011;37974;53.218;6.640;2024-02-15T02:54:10;825.70;;;759.20;;
51949;SDS011;37974;53.218;6.640;2024-02-15T02:56:36;866.55;;;793.90;;
51949;SDS011;37974;53.218;6.640;2024-02-15T02:59:01;776.05;;;714.55;;
51949;SDS011;37974;53.218;6.640;2024-02-15T03:01:28;844.88;;;774.50;;
51949;SDS011;37974;53.218;6.640;2024-02-15T03:03:55;815.55;;;749.92;;
51949;SDS011;37974;53.218;6.640;2024-02-15T03:06:21;852.30;;;782.40;;
51949;SDS011;37974;53.218;6.640;2024-02-15T03:08:49;836.08;;;767.67;;
51949;SDS011;37974;53.218;6.640;2024-02-15T03:11:19;833.78;;;765.22;;
51949;SDS011;37974;53.218;6.640;2024-02-15T03:13:45;844.78;;;775.15;;
51949;SDS011;37974;53.218;6.640;2024-02-15T03:16:13;785.95;;;724.30;;
51949;SDS011;37974;53.218;6.640;2024-02-15T03:18:39;792.72;;;728.95;;
51949;SDS011;37974;53.218;6.640;2024-02-15T03:21:06;785.60;;;723.20;;
51949;SDS011;37974;53.218;6.640;2024-02-15T03:23:34;811.75;;;746.33;;
51949;SDS011;37974;53.218;6.640;2024-02-15T03:26:01;834.13;;;765.90;;
51949;SDS011;37974;53.218;6.640;2024-02-15T03:28:28;798.75;;;734.85;;
51949;SDS011;37974;53.218;6.640;2024-02-15T03:30:54;816.60;;;751.35;;
51949;SDS011;37974;53.218;6.640;2024-02-15T03:33:21;776.92;;;715.13;;
51949;SDS011;37974;53.218;6.640;2024-02-15T03:35:51;755.45;;;696.03;;
51949;SDS011;37974;53.218;6.640;2024-02-15T03:38:17;774.00;;;712.72;;
51949;SDS011;37974;53.218;6.640;2024-02-15T03:40:42;808.50;;;743.67;;
51949;SDS011;37974;53.218;6.640;2024-02-15T03:43:08;835.67;;;767.13;;
51949;SDS011;37974;53.218;6.640;2024-02-15T03:45:34;767.88;;;706.88;;
51949;SDS011;37974;53.218;6.640;2024-02-15T03:48:00;859.63;;;787.15;;
51949;SDS011;37974;53.218;6.640;2024-02-15T03:50:25;785.60;;;722.72;;
51949;SDS011;37974;53.218;6.640;2024-02-15T03:52:51;830.22;;;762.97;;
51949;SDS011;37974;53.218;6.640;2024-02-15T03:55:17;694.80;;;639.90;;
51949;SDS011;37974;53.218;6.640;2024-02-15T03:57:43;828.97;;;761.03;;
51949;SDS011;37974;53.218;6.640;2024-02-15T04:00:10;773.08;;;711.40;;
51949;SDS011;37974;53.218;6.640;2024-02-15T04:02:36;833.63;;;764.75;;
51949;SDS011;37974;53.218;6.640;2024-02-15T04:05:03;766.58;;;706.17;;
51949;SDS011;37974;53.218;6.640;2024-02-15T04:07:30;748.88;;;689.70;;
51949;SDS011;37974;53.218;6.640;2024-02-15T04:09:56;801.83;;;736.90;;
51949;SDS011;37974;53.218;6.640;2024-02-15T04:12:21;745.65;;;686.75;;
51949;SDS011;37974;53.218;6.640;2024-02-15T04:14:47;755.53;;;694.65;;
51949;SDS011;37974;53.218;6.640;2024-02-15T04:17:14;793.38;;;728.75;;
51949;SDS011;37974;53.218;6.640;2024-02-15T04:19:45;765.05;;;704.10;;
51949;SDS011;37974;53.218;6.640;2024-02-15T04:22:12;800.13;;;735.10;;
51949;SDS011;37974;53.218;6.640;2024-02-15T04:24:41;770.53;;;709.25;;
51949;SDS011;37974;53.218;6.640;2024-02-15T04:27:08;776.88;;;715.20;;
51949;SDS011;37974;53.218;6.640;2024-02-15T04:29:37;787.97;;;724.15;;
51949;SDS011;37974;53.218;6.640;2024-02-15T04:32:05;789.03;;;725.13;;
51949;SDS011;37974;53.218;6.640;2024-02-15T04:34:35;788.63;;;724.47;;
51949;SDS011;37974;53.218;6.640;2024-02-15T04:37:01;831.88;;;763.53;;
51949;SDS011;37974;53.218;6.640;2024-02-15T04:39:32;769.45;;;707.42;;
51949;SDS011;37974;53.218;6.640;2024-02-15T04:41:58;763.22;;;701.90;;
51949;SDS011;37974;53.218;6.640;2024-02-15T04:44:23;824.35;;;757.10;;
51949;SDS011;37974;53.218;6.640;2024-02-15T04:46:52;792.65;;;729.30;;
51949;SDS011;37974;53.218;6.640;2024-02-15T04:49:19;835.63;;;766.72;;
51949;SDS011;37974;53.218;6.640;2024-02-15T04:51:45;832.13;;;764.00;;
51949;SDS011;37974;53.218;6.640;2024-02-15T04:54:12;788.90;;;725.33;;
51949;SDS011;37974;53.218;6.640;2024-02-15T04:56:38;774.03;;;712.45;;
51949;SDS011;37974;53.218;6.640;2024-02-15T04:59:06;776.70;;;714.25;;
51949;SDS011;37974;53.218;6.640;2024-02-15T05:01:34;803.85;;;738.33;;
51949;SDS011;37974;53.218;6.640;2024-02-15T05:04:00;797.13;;;732.53;;
51949;SDS011;37974;53.218;6.640;2024-02-15T05:06:32;806.88;;;741.83;;
51949;SDS011;37974;53.218;6.640;2024-02-15T05:08:58;812.28;;;746.13;;
51949;SDS011;37974;53.218;6.640;2024-02-15T05:11:26;825.65;;;758.83;;
51949;SDS011;37974;53.218;6.640;2024-02-15T05:13:51;798.40;;;733.38;;
51949;SDS011;37974;53.218;6.640;2024-02-15T05:16:17;778.55;;;715.85;;
51949;SDS011;37974;53.218;6.640;2024-02-15T05:18:44;869.15;;;796.20;;
51949;SDS011;37974;53.218;6.640;2024-02-15T05:21:11;824.83;;;757.75;;
51949;SDS011;37974;53.218;6.640;2024-02-15T05:23:37;812.95;;;745.90;;
51949;SDS011;37974;53.218;6.640;2024-02-15T05:26:05;793.10;;;729.03;;
51949;SDS011;37974;53.218;6.640;2024-02-15T05:28:31;770.97;;;709.92;;
51949;SDS011;37974;53.218;6.640;2024-02-15T05:31:15;808.85;;;743.25;;
51949;SDS011;37974;53.218;6.640;2024-02-15T05:33:45;819.72;;;752.25;;
51949;SDS011;37974;53.218;6.640;2024-02-15T05:36:12;777.58;;;714.47;;
51949;SDS011;37974;53.218;6.640;2024-02-15T05:38:39;859.80;;;788.60;;
51949;SDS011;37974;53.218;6.640;2024-02-15T05:41:05;805.88;;;740.58;;
51949;SDS011;37974;53.218;6.640;2024-02-15T05:43:33;856.33;;;785.15;;
51949;SDS011;37974;53.218;6.640;2024-02-15T05:46:01;800.55;;;736.05;;
51949;SDS011;37974;53.218;6.640;2024-02-15T05:48:28;861.97;;;790.35;;
51949;SDS011;37974;53.218;6.640;2024-02-15T05:50:54;828.28;;;761.13;;
51949;SDS011;37974;53.218;6.640;2024-02-15T05:53:20;802.80;;;737.92;;
51949;SDS011;37974;53.218;6.640;2024-02-15T05:55:46;865.35;;;793.38;;
51949;SDS011;37974;53.218;6.640;2024-02-15T05:58:15;863.92;;;793.08;;
51949;SDS011;37974;53.218;6.640;2024-02-15T06:00:41;820.42;;;753.22;;
51949;SDS011;37974;53.218;6.640;2024-02-15T06:03:09;783.95;;;720.92;;
51949;SDS011;37974;53.218;6.640;2024-02-15T06:05:37;769.88;;;708.97;;
51949;SDS011;37974;53.218;6.640;2024-02-15T06:08:03;820.55;;;754.05;;
51949;SDS011;37974;53.218;6.640;2024-02-15T06:10:29;860.60;;;788.67;;
51949;SDS011;37974;53.218;6.640;2024-02-15T06:12:56;848.38;;;777.53;;
51949;SDS011;37974;53.218;6.640;2024-02-15T06:15:23;839.22;;;770.42;;
51949;SDS011;37974;53.218;6.640;2024-02-15T06:17:49;841.45;;;772.60;;
51949;SDS011;37974;53.218;6.640;2024-02-15T06:20:15;808.72;;;742.80;;
51949;SDS011;37974;53.218;6.640;2024-02-15T06:22:43;822.60;;;755.40;;
51949;SDS011;37974;53.218;6.640;2024-02-15T06:25:09;802.35;;;737.28;;
51949;SDS011;37974;53.218;6.640;2024-02-15T06:27:37;801.30;;;736.17;;
51949;SDS011;37974;53.218;6.640;2024-02-15T06:30:06;812.45;;;746.00;;
51949;SDS011;37974;53.218;6.640;2024-02-15T06:32:51;785.40;;;721.97;;
51949;SDS011;37974;53.218;6.640;2024-02-15T06:35:36;798.70;;;734.35;;
51949;SDS011;37974;53.218;6.640;2024-02-15T06:38:21;821.97;;;754.38;;
51949;SDS011;37974;53.218;6.640;2024-02-15T06:41:05;794.28;;;730.50;;
51949;SDS011;37974;53.218;6.640;2024-02-15T06:43:31;829.53;;;761.42;;
51949;SDS011;37974;53.218;6.640;2024-02-15T06:45:58;725.00;;;668.35;;
51949;SDS011;37974;53.218;6.640;2024-02-15T06:48:24;800.50;;;735.40;;
51949;SDS011;37974;53.218;6.640;2024-02-15T06:50:51;762.40;;;702.08;;
51949;SDS011;37974;53.218;6.640;2024-02-15T06:53:17;767.72;;;706.15;;
51949;SDS011;37974;53.218;6.640;2024-02-15T06:55:45;771.95;;;709.90;;
51949;SDS011;37974;53.218;6.640;2024-02-15T06:58:14;829.38;;;761.55;;
51949;SDS011;37974;53.218;6.640;2024-02-15T07:00:41;766.90;;;705.75;;
51949;SDS011;37974;53.218;6.640;2024-02-15T07:03:07;788.47;;;724.03;;
51949;SDS011;37974;53.218;6.640;2024-02-15T07:05:34;800.08;;;735.15;;
51949;SDS011;37974;53.218;6.640;2024-02-15T07:08:00;742.40;;;683.85;;
51949;SDS011;37974;53.218;6.640;2024-02-15T07:10:26;734.75;;;677.00;;
51949;SDS011;37974;53.218;6.640;2024-02-15T07:12:52;738.17;;;679.58;;
51949;SDS011;37974;53.218;6.640;2024-02-15T07:15:17;745.15;;;686.20;;
51949;SDS011;37974;53.218;6.640;2024-02-15T07:17:43;766.50;;;704.90;;
51949;SDS011;37974;53.218;6.640;2024-02-15T07:20:10;760.20;;;699.17;;
51949;SDS011;37974;53.218;6.640;2024-02-15T07:22:39;597.97;;;552.78;;
51949;SDS011;37974;53.218;6.640;2024-02-15T07:25:04;592.20;;;547.30;;
51949;SDS011;37974;53.218;6.640;2024-02-15T07:27:30;640.08;;;591.05;;
51949;SDS011;37974;53.218;6.640;2024-02-15T07:30:00;647.60;;;598.10;;
51949;SDS011;37974;53.218;6.640;2024-02-15T07:32:25;648.92;;;598.58;;
51949;SDS011;37974;53.218;6.640;2024-02-15T07:34:52;649.45;;;599.95;;
51949;SDS011;37974;53.218;6.640;2024-02-15T07:37:17;608.70;;;562.20;;
51949;SDS011;37974;53.218;6.640;2024-02-15T07:39:43;646.10;;;596.22;;
51949;SDS011;37974;53.218;6.640;2024-02-15T07:42:09;646.67;;;596.67;;
51949;SDS011;37974;53.218;6.640;2024-02-15T07:44:35;612.50;;;565.85;;
51949;SDS011;37974;53.218;6.640;2024-02-15T07:47:02;602.55;;;556.97;;
51949;SDS011;37974;53.218;6.640;2024-02-15T07:49:29;610.00;;;563.45;;
51949;SDS011;37974;53.218;6.640;2024-02-15T07:51:56;642.28;;;593.55;;
51949;SDS011;37974;53.218;6.640;2024-02-15T07:54:23;616.78;;;569.83;;
51949;SDS011;37974;53.218;6.640;2024-02-15T07:56:49;596.95;;;550.42;;
51949;SDS011;37974;53.218;6.640;2024-02-15T07:59:15;601.53;;;556.13;;
51949;SDS011;37974;53.218;6.640;2024-02-15T08:01:42;599.33;;;553.55;;
51949;SDS011;37974;53.218;6.640;2024-02-15T08:04:08;606.25;;;560.60;;
51949;SDS011;37974;53.218;6.640;2024-02-15T08:06:34;592.60;;;547.60;;
51949;SDS011;37974;53.218;6.640;2024-02-15T08:09:02;618.35;;;571.28;;
51949;SDS011;37974;53.218;6.640;2024-02-15T08:11:31;572.67;;;530.05;;
51949;SDS011;37974;53.218;6.640;2024-02-15T08:13:57;606.75;;;561.10;;
51949;SDS011;37974;53.218;6.640;2024-02-15T08:16:24;568.50;;;526.22;;
51949;SDS011;37974;53.218;6.640;2024-02-15T08:18:54;559.03;;;517.75;;
51949;SDS011;37974;53.218;6.640;2024-02-15T08:21:27;558.85;;;516.70;;
51949;SDS011;37974;53.218;6.640;2024-02-15T08:23:54;583.47;;;540.20;;
51949;SDS011;37974;53.218;6.640;2024-02-15T08:26:21;590.03;;;546.13;;
51949;SDS011;37974;53.218;6.640;2024-02-15T08:28:47;544.45;;;504.35;;
51949;SDS011;37974;53.218;6.640;2024-02-15T08:31:13;578.13;;;534.88;;
51949;SDS011;37974;53.218;6.640;2024-02-15T08:33:40;528.33;;;490.38;;
51949;SDS011;37974;53.218;6.640;2024-02-15T08:36:08;550.80;;;509.88;;
51949;SDS011;37974;53.218;6.640;2024-02-15T08:38:36;712.75;;;656.80;;
51949;SDS011;37974;53.218;6.640;2024-02-15T08:41:03;691.03;;;638.15;;
51949;SDS011;37974;53.218;6.640;2024-02-15T08:43:30;579.63;;;536.30;;
51949;SDS011;37974;53.218;6.640;2024-02-15T08:45:58;606.42;;;560.95;;
51949;SDS011;37974;53.218;6.640;2024-02-15T08:48:24;597.17;;;552.58;;
51949;SDS011;37974;53.218;6.640;2024-02-15T08:50:50;559.47;;;517.95;;
51949;SDS011;37974;53.218;6.640;2024-02-15T08:53:16;563.75;;;521.15;;
51949;SDS011;37974;53.218;6.640;2024-02-15T08:55:44;602.03;;;556.80;;
51949;SDS011;37974;53.218;6.640;2024-02-15T08:58:10;598.08;;;553.13;;
51949;SDS011;37974;53.218;6.640;2024-02-15T09:00:36;558.97;;;517.88;;
51949;SDS011;37974;53.218;6.640;2024-02-15T09:03:09;591.90;;;547.45;;
51949;SDS011;37974;53.218;6.640;2024-02-15T09:05:35;553.63;;;512.58;;
51949;SDS011;37974;53.218;6.640;2024-02-15T09:08:01;549.58;;;509.65;;
51949;SDS011;37974;53.218;6.640;2024-02-15T09:10:29;534.22;;;494.98;;
51949;SDS011;37974;53.218;6.640;2024-02-15T09:12:55;539.15;;;500.65;;
51949;SDS011;37974;53.218;6.640;2024-02-15T09:15:21;548.60;;;508.15;;
51949;SDS011;37974;53.218;6.640;2024-02-15T09:17:48;524.83;;;487.55;;
51949;SDS011;37974;53.218;6.640;2024-02-15T09:20:15;540.38;;;501.60;;
51949;SDS011;37974;53.218;6.640;2024-02-15T09:22:48;572.50;;;530.35;;
51949;SDS011;37974;53.218;6.640;2024-02-15T09:25:14;544.08;;;504.10;;
51949;SDS011;37974;53.218;6.640;2024-02-15T09:27:40;575.42;;;532.50;;
51949;SDS011;37974;53.218;6.640;2024-02-15T09:30:06;576.13;;;533.83;;
51949;SDS011;37974;53.218;6.640;2024-02-15T09:32:35;538.53;;;499.52;;
51949;SDS011;37974;53.218;6.640;2024-02-15T09:35:02;569.88;;;528.47;;
51949;SDS011;37974;53.218;6.640;2024-02-15T09:37:27;571.95;;;530.25;;
51949;SDS011;37974;53.218;6.640;2024-02-15T09:39:54;618.05;;;571.88;;
51949;SDS011;37974;53.218;6.640;2024-02-15T09:42:20;623.35;;;576.45;;
51949;SDS011;37974;53.218;6.640;2024-02-15T09:44:46;622.60;;;575.78;;
51949;SDS011;37974;53.218;6.640;2024-02-15T09:47:12;681.95;;;630.25;;
51949;SDS011;37974;53.218;6.640;2024-02-15T09:49:40;785.75;;;723.60;;
51949;SDS011;37974;53.218;6.640;2024-02-15T09:52:07;934.08;;;852.13;;
51949;SDS011;37974;53.218;6.640;2024-02-15T09:54:43;979.42;;;889.17;;
51949;SDS011;37974;53.218;6.640;2024-02-15T09:57:09;989.78;;;897.13;;
51949;SDS011;37974;53.218;6.640;2024-02-15T09:59:36;993.78;;;902.40;;
51949;SDS011;37974;53.218;6.640;2024-02-15T10:02:03;1001.53;;;908.15;;
51949;SDS011;37974;53.218;6.640;2024-02-15T10:04:28;944.70;;;860.60;;
51949;SDS011;37974;53.218;6.640;2024-02-15T10:06:54;953.17;;;867.67;;
51949;SDS011;37974;53.218;6.640;2024-02-15T10:09:27;1003.58;;;909.35;;
51949;SDS011;37974;53.218;6.640;2024-02-15T10:11:57;978.63;;;888.30;;
51949;SDS011;37974;53.218;6.640;2024-02-15T10:14:24;972.50;;;883.45;;
51949;SDS011;37974;53.218;6.640;2024-02-15T10:16:51;974.28;;;885.10;;
51949;SDS011;37974;53.218;6.640;2024-02-15T10:19:18;974.30;;;885.78;;
51949;SDS011;37974;53.218;6.640;2024-02-15T10:21:50;994.58;;;901.03;;
51949;SDS011;37974;53.218;6.640;2024-02-15T10:24:18;995.28;;;902.08;;
51949;SDS011;37974;53.218;6.640;2024-02-15T10:26:45;1006.63;;;912.03;;
51949;SDS011;37974;53.218;6.640;2024-02-15T10:29:13;954.70;;;868.90;;
51949;SDS011;37974;53.218;6.640;2024-02-15T10:31:51;993.00;;;901.42;;
51949;SDS011;37974;53.218;6.640;2024-02-15T10:34:18;959.25;;;873.40;;
51949;SDS011;37974;53.218;6.640;2024-02-15T10:36:45;972.70;;;885.05;;
51949;SDS011;37974;53.218;6.640;2024-02-15T10:39:12;951.50;;;867.28;;
51949;SDS011;37974;53.218;6.640;2024-02-15T10:41:45;994.05;;;902.53;;
51949;SDS011;37974;53.218;6.640;2024-02-15T10:44:13;942.15;;;858.88;;
51949;SDS011;37974;53.218;6.640;2024-02-15T10:46:44;958.53;;;872.10;;
51949;SDS011;37974;53.218;6.640;2024-02-15T10:49:19;945.05;;;862.55;;
51949;SDS011;37974;53.218;6.640;2024-02-15T10:51:48;966.05;;;879.17;;
51949;SDS011;37974;53.218;6.640;2024-02-15T10:54:19;1018.08;;;920.40;;
51949;SDS011;37974;53.218;6.640;2024-02-15T10:57:03;1008.90;;;911.88;;
51949;SDS011;37974;53.218;6.640;2024-02-15T10:59:31;1020.17;;;923.15;;
51949;SDS011;37974;53.218;6.640;2024-02-15T11:02:00;1032.18;;;933.08;;
51949;SDS011;37974;53.218;6.640;2024-02-15T11:04:30;992.60;;;900.05;;
51949;SDS011;37974;53.218;6.640;2024-02-15T11:07:00;1018.65;;;920.55;;
51949;SDS011;37974;53.218;6.640;2024-02-15T11:09:28;1016.15;;;918.80;;
51949;SDS011;37974;53.218;6.640;2024-02-15T11:11:55;983.55;;;893.90;;
51949;SDS011;37974;53.218;6.640;2024-02-15T11:14:22;1036.78;;;935.22;;
51949;SDS011;37974;53.218;6.640;2024-02-15T11:16:55;1037.50;;;936.78;;
51949;SDS011;37974;53.218;6.640;2024-02-15T11:21:58;1013.58;;;917.20;;
51949;SDS011;37974;53.218;6.640;2024-02-15T11:24:28;983.15;;;893.22;;
51949;SDS011;37974;53.218;6.640;2024-02-15T11:26:58;989.58;;;898.05;;
51949;SDS011;37974;53.218;6.640;2024-02-15T11:30:00;982.10;;;892.67;;
51949;SDS011;37974;53.218;6.640;2024-02-15T11:32:35;1018.00;;;921.22;;
51949;SDS011;37974;53.218;6.640;2024-02-15T11:35:06;1017.75;;;921.30;;
51949;SDS011;37974;53.218;6.640;2024-02-15T11:40:15;987.47;;;896.72;;
51949;SDS011;37974;53.218;6.640;2024-02-15T11:42:42;959.00;;;872.95;;
51949;SDS011;37974;53.218;6.640;2024-02-15T11:45:08;985.47;;;894.53;;
51949;SDS011;37974;53.218;6.640;2024-02-15T11:47:36;1020.38;;;923.25;;
51949;SDS011;37974;53.218;6.640;2024-02-15T11:50:06;997.38;;;904.17;;
51949;SDS011;37974;53.218;6.640;2024-02-15T11:52:37;986.92;;;896.45;;
51949;SDS011;37974;53.218;6.640;2024-02-15T11:55:06;988.03;;;898.42;;
51949;SDS011;37974;53.218;6.640;2024-02-15T11:57:37;972.15;;;884.40;;
51949;SDS011;37974;53.218;6.640;2024-02-15T12:00:22;983.10;;;892.58;;
51949;SDS011;37974;53.218;6.640;2024-02-15T12:03:07;1016.03;;;919.42;;
51949;SDS011;37974;53.218;6.640;2024-02-15T12:05:52;969.25;;;880.40;;
51949;SDS011;37974;53.218;6.640;2024-02-15T12:08:37;960.08;;;873.45;;
51949;SDS011;37974;53.218;6.640;2024-02-15T12:11:21;942.45;;;859.15;;
51949;SDS011;37974;53.218;6.640;2024-02-15T12:14:05;975.30;;;887.78;;
51949;SDS011;37974;53.218;6.640;2024-02-15T12:17:01;1020.70;;;923.47;;
51949;SDS011;37974;53.218;6.640;2024-02-15T12:19:47;1000.90;;;907.78;;
51949;SDS011;37974;53.218;6.640;2024-02-15T12:22:16;972.00;;;884.53;;
51949;SDS011;37974;53.218;6.640;2024-02-15T12:24:52;970.13;;;882.92;;
51949;SDS011;37974;53.218;6.640;2024-02-15T12:27:19;952.13;;;867.72;;
51949;SDS011;37974;53.218;6.640;2024-02-15T12:29:46;961.17;;;875.35;;
51949;SDS011;37974;53.218;6.640;2024-02-15T12:32:21;986.30;;;896.45;;
51949;SDS011;37974;53.218;6.640;2024-02-15T12:34:48;954.45;;;869.67;;
51949;SDS011;37974;53.218;6.640;2024-02-15T12:37:17;975.65;;;887.30;;
51949;SDS011;37974;53.218;6.640;2024-02-15T12:39:43;964.47;;;878.42;;
51949;SDS011;37974;53.218;6.640;2024-02-15T12:42:09;960.35;;;874.75;;
51949;SDS011;37974;53.218;6.640;2024-02-15T12:44:35;936.22;;;854.90;;
51949;SDS011;37974;53.218;6.640;2024-02-15T12:47:01;964.63;;;878.05;;
51949;SDS011;37974;53.218;6.640;2024-02-15T12:49:28;932.47;;;851.03;;
51949;SDS011;37974;53.218;6.640;2024-02-15T12:52:32;917.22;;;838.33;;
51949;SDS011;37974;53.218;6.640;2024-02-15T12:55:06;988.83;;;897.50;;
51949;SDS011;37974;53.218;6.640;2024-02-15T12:57:33;922.42;;;842.92;;
51949;SDS011;37974;53.218;6.640;2024-02-15T13:00:01;973.65;;;885.63;;
51949;SDS011;37974;53.218;6.640;2024-02-15T13:02:36;934.05;;;852.15;;
51949;SDS011;37974;53.218;6.640;2024-02-15T13:05:03;951.33;;;866.75;;
51949;SDS011;37974;53.218;6.640;2024-02-15T13:07:30;938.95;;;856.30;;
51949;SDS011;37974;53.218;6.640;2024-02-15T13:09:56;925.10;;;844.05;;
51949;SDS011;37974;53.218;6.640;2024-02-15T13:12:22;967.80;;;880.83;;
51949;SDS011;37974;53.218;6.640;2024-02-15T13:14:48;985.83;;;895.90;;
51949;SDS011;37974;53.218;6.640;2024-02-15T13:17:15;962.53;;;875.47;;
51949;SDS011;37974;53.218;6.640;2024-02-15T13:19:46;943.80;;;861.35;;
51949;SDS011;37974;53.218;6.640;2024-02-15T13:22:14;979.28;;;889.65;;
51949;SDS011;37974;53.218;6.640;2024-02-15T13:24:41;922.97;;;843.88;;
51949;SDS011;37974;53.218;6.640;2024-02-15T13:27:07;935.28;;;854.05;;
51949;SDS011;37974;53.218;6.640;2024-02-15T13:29:37;901.03;;;824.58;;
51949;SDS011;37974;53.218;6.640;2024-02-15T13:32:06;957.72;;;870.70;;
51949;SDS011;37974;53.218;6.640;2024-02-15T13:34:32;901.53;;;824.92;;
51949;SDS011;37974;53.218;6.640;2024-02-15T13:36:59;921.70;;;841.33;;
51949;SDS011;37974;53.218;6.640;2024-02-15T13:39:27;936.08;;;853.10;;
51949;SDS011;37974;53.218;6.640;2024-02-15T13:41:58;905.85;;;828.47;;
51949;SDS011;37974;53.218;6.640;2024-02-15T13:44:25;923.35;;;843.95;;
51949;SDS011;37974;53.218;6.640;2024-02-15T13:46:51;950.13;;;865.90;;
51949;SDS011;37974;53.218;6.640;2024-02-15T13:49:20;921.75;;;842.83;;
51949;SDS011;37974;53.218;6.640;2024-02-15T13:51:47;950.85;;;867.00;;
51949;SDS011;37974;53.218;6.640;2024-02-15T13:54:13;880.35;;;806.15;;
51949;SDS011;37974;53.218;6.640;2024-02-15T13:56:38;894.40;;;819.00;;
51949;SDS011;37974;53.218;6.640;2024-02-15T13:59:05;880.28;;;806.67;;
51949;SDS011;37974;53.218;6.640;2024-02-15T14:01:31;900.92;;;824.55;;
51949;SDS011;37974;53.218;6.640;2024-02-15T14:03:57;932.97;;;851.22;;
51949;SDS011;37974;53.218;6.640;2024-02-15T14:06:22;927.55;;;846.85;;
51949;SDS011;37974;53.218;6.640;2024-02-15T14:08:48;896.63;;;820.78;;